sensor_id;sensor_type;location;lat;lon;timestamp;pressure;altitude;pressure_sealevel;temperature;humidity
30618;BME280;17384;51.214;9.202;2023-06-26T00:02:09;98631.13;;;15.91;93.03
30618;BME280;17384;51.214;9.202;2023-06-26T00:04:34;98635.44;;;15.87;93.32
30618;BME280;17384;51.214;9.202;2023-06-26T00:07:01;98634.59;;;15.82;93.33
30618;BME280;17384;51.214;9.202;2023-06-26T00:09:26;98626.56;;;15.75;92.55
30618;BME280;17384;51.214;9.202;2023-06-26T00:11:52;98630.94;;;15.76;93.06
30618;BME280;17384;51.214;9.202;2023-06-26T00:14:18;98623.25;;;15.73;93.36
30618;BME280;17384;51.214;9.202;2023-06-26T00:16:46;98626.06;;;15.62;94.04
30618;BME280;17384;51.214;9.202;2023-06-26T00:19:12;98637.56;;;15.59;94.80
30618;BME280;17384;51.214;9.202;2023-06-26T00:21:37;98629.22;;;15.53;95.28
30618;BME280;17384;51.214;9.202;2023-06-26T00:24:03;98619.63;;;15.51;94.84
30618;BME280;17384;51.214;9.202;2023-06-26T00:26:28;98621.78;;;15.49;94.17
30618;BME280;17384;51.214;9.202;2023-06-26T00:28:54;98621.44;;;15.45;94.61
30618;BME280;17384;51.214;9.202;2023-06-26T00:31:19;98631.56;;;15.45;94.57
30618;BME280;17384;51.214;9.202;2023-06-26T00:33:45;98629.41;;;15.47;94.63
30618;BME280;17384;51.214;9.202;2023-06-26T00:36:10;98620.63;;;15.45;94.63
30618;BME280;17384;51.214;9.202;2023-06-26T00:38:35;98626.00;;;15.40;94.41
30618;BME280;17384;51.214;9.202;2023-06-26T00:41:01;98621.03;;;15.37;94.32
30618;BME280;17384;51.214;9.202;2023-06-26T00:43:26;98628.41;;;15.36;94.72
30618;BME280;17384;51.214;9.202;2023-06-26T00:45:52;98618.88;;;15.39;94.40
30618;BME280;17384;51.214;9.202;2023-06-26T00:48:18;98618.81;;;15.34;94.29
30618;BME280;17384;51.214;9.202;2023-06-26T00:50:43;98624.63;;;15.20;95.34
30618;BME280;17384;51.214;9.202;2023-06-26T00:53:09;98621.81;;;15.15;96.03
30618;BME280;17384;51.214;9.202;2023-06-26T00:55:35;98620.16;;;15.14;96.47
30618;BME280;17384;51.214;9.202;2023-06-26T00:58:00;98619.84;;;15.11;96.38
30618;BME280;17384;51.214;9.202;2023-06-26T01:00:26;98622.31;;;15.12;96.24
30618;BME280;17384;51.214;9.202;2023-06-26T01:02:51;98616.28;;;15.10;95.84
30618;BME280;17384;51.214;9.202;2023-06-26T01:05:17;98617.53;;;15.03;95.55
30618;BME280;17384;51.214;9.202;2023-06-26T01:07:49;98605.78;;;15.02;95.50
30618;BME280;17384;51.214;9.202;2023-06-26T01:10:15;98611.41;;;14.96;95.44
30618;BME280;17384;51.214;9.202;2023-06-26T01:12:40;98609.41;;;14.91;95.98
30618;BME280;17384;51.214;9.202;2023-06-26T01:15:06;98604.19;;;14.89;95.97
30618;BME280;17384;51.214;9.202;2023-06-26T01:17:32;98599.81;;;14.88;96.17
30618;BME280;17384;51.214;9.202;2023-06-26T01:19:59;98609.41;;;14.91;96.06
30618;BME280;17384;51.214;9.202;2023-06-26T01:22:37;98609.41;;;14.91;95.98
30618;BME280;17384;51.214;9.202;2023-06-26T01:27:55;98596.16;;;14.83;95.57
30618;BME280;17384;51.214;9.202;2023-06-26T01:30:21;98608.66;;;14.79;95.86
30618;BME280;17384;51.214;9.202;2023-06-26T01:32:48;98591.13;;;14.75;95.87
30618;BME280;17384;51.214;9.202;2023-06-26T01:35:15;98587.56;;;14.74;95.88
30618;BME280;17384;51.214;9.202;2023-06-26T01:37:41;98585.09;;;14.73;95.65
30618;BME280;17384;51.214;9.202;2023-06-26T01:40:07;98584.41;;;14.66;95.83
30618;BME280;17384;51.214;9.202;2023-06-26T01:42:33;98585.97;;;14.62;96.11
30618;BME280;17384;51.214;9.202;2023-06-26T01:45:03;98580.41;;;14.56;96.51
30618;BME280;17384;51.214;9.202;2023-06-26T01:47:31;98587.31;;;14.76;95.81
30618;BME280;17384;51.214;9.202;2023-06-26T01:50:05;98575.31;;;14.77;95.77
30618;BME280;17384;51.214;9.202;2023-06-26T01:52:34;98586.56;;;14.64;96.16
30618;BME280;17384;51.214;9.202;2023-06-26T01:58:15;98582.53;;;14.38;97.20
30618;BME280;17384;51.214;9.202;2023-06-26T02:00:42;98578.13;;;14.37;97.20
30618;BME280;17384;51.214;9.202;2023-06-26T02:03:08;98580.88;;;14.37;97.45
30618;BME280;17384;51.214;9.202;2023-06-26T02:05:34;98579.25;;;14.24;96.54
30618;BME280;17384;51.214;9.202;2023-06-26T02:08:00;98572.06;;;14.18;97.57
30618;BME280;17384;51.214;9.202;2023-06-26T02:10:28;98578.00;;;14.15;98.09
30618;BME280;17384;51.214;9.202;2023-06-26T02:12:54;98571.97;;;14.13;98.16
30618;BME280;17384;51.214;9.202;2023-06-26T02:15:19;98560.16;;;14.24;97.54
30618;BME280;17384;51.214;9.202;2023-06-26T02:17:44;98571.59;;;14.21;97.42
30618;BME280;17384;51.214;9.202;2023-06-26T02:20:16;98557.44;;;14.24;97.83
30618;BME280;17384;51.214;9.202;2023-06-26T02:22:42;98563.81;;;14.30;98.09
30618;BME280;17384;51.214;9.202;2023-06-26T02:25:11;98568.84;;;14.21;98.41
30618;BME280;17384;51.214;9.202;2023-06-26T02:27:37;98566.28;;;14.14;98.42
30618;BME280;17384;51.214;9.202;2023-06-26T02:30:03;98564.06;;;14.00;97.91
30618;BME280;17384;51.214;9.202;2023-06-26T02:32:29;98561.09;;;14.01;97.86
30618;BME280;17384;51.214;9.202;2023-06-26T02:34:54;98555.88;;;14.00;97.62
30618;BME280;17384;51.214;9.202;2023-06-26T02:37:20;98550.66;;;13.98;97.69
30618;BME280;17384;51.214;9.202;2023-06-26T02:39:45;98561.00;;;13.96;97.60
30618;BME280;17384;51.214;9.202;2023-06-26T02:42:11;98558.19;;;13.91;97.72
30618;BME280;17384;51.214;9.202;2023-06-26T02:44:36;98558.44;;;13.89;97.75
30618;BME280;17384;51.214;9.202;2023-06-26T02:47:02;98566.25;;;13.86;97.84
30618;BME280;17384;51.214;9.202;2023-06-26T02:49:27;98553.94;;;13.83;97.59
30618;BME280;17384;51.214;9.202;2023-06-26T02:51:53;98552.75;;;13.79;98.13
30618;BME280;17384;51.214;9.202;2023-06-26T02:54:18;98558.94;;;13.75;98.25
30618;BME280;17384;51.214;9.202;2023-06-26T02:56:44;98555.97;;;13.76;98.78
30618;BME280;17384;51.214;9.202;2023-06-26T02:59:09;98543.41;;;13.75;98.64
30618;BME280;17384;51.214;9.202;2023-06-26T03:01:34;98552.75;;;13.79;98.79
30618;BME280;17384;51.214;9.202;2023-06-26T03:04:00;98550.38;;;13.83;98.81
30618;BME280;17384;51.214;9.202;2023-06-26T03:06:26;98560.59;;;13.76;99.23
30618;BME280;17384;51.214;9.202;2023-06-26T03:08:53;98550.63;;;13.81;99.16
30618;BME280;17384;51.214;9.202;2023-06-26T03:11:18;98556.31;;;13.80;98.51
30618;BME280;17384;51.214;9.202;2023-06-26T03:13:44;98556.81;;;13.77;97.78
30618;BME280;17384;51.214;9.202;2023-06-26T03:16:09;98541.16;;;13.72;97.63
30618;BME280;17384;51.214;9.202;2023-06-26T03:18:35;98547.91;;;13.70;97.61
30618;BME280;17384;51.214;9.202;2023-06-26T03:21:00;98551.41;;;13.65;97.58
30618;BME280;17384;51.214;9.202;2023-06-26T03:23:26;98547.00;;;13.64;97.61
30618;BME280;17384;51.214;9.202;2023-06-26T03:25:51;98554.84;;;13.61;97.92
30618;BME280;17384;51.214;9.202;2023-06-26T03:28:17;98543.47;;;13.64;97.81
30618;BME280;17384;51.214;9.202;2023-06-26T03:30:42;98547.25;;;13.63;97.28
30618;BME280;17384;51.214;9.202;2023-06-26T03:33:08;98542.88;;;13.62;96.91
30618;BME280;17384;51.214;9.202;2023-06-26T03:35:33;98542.03;;;13.61;97.12
30618;BME280;17384;51.214;9.202;2023-06-26T03:38:01;98551.41;;;13.65;97.14
30618;BME280;17384;51.214;9.202;2023-06-26T03:40:27;98540.25;;;13.67;97.06
30618;BME280;17384;51.214;9.202;2023-06-26T03:42:52;98532.63;;;13.69;97.43
30618;BME280;17384;51.214;9.202;2023-06-26T03:45:18;98535.13;;;13.70;96.90
30618;BME280;17384;51.214;9.202;2023-06-26T03:47:44;98538.34;;;13.67;96.91
30618;BME280;17384;51.214;9.202;2023-06-26T03:50:12;98531.81;;;13.68;96.64
30618;BME280;17384;51.214;9.202;2023-06-26T03:52:37;98535.72;;;13.72;96.62
30618;BME280;17384;51.214;9.202;2023-06-26T03:55:03;98527.38;;;13.91;96.46
30618;BME280;17384;51.214;9.202;2023-06-26T03:57:29;98529.84;;;13.92;96.05
30618;BME280;17384;51.214;9.202;2023-06-26T03:59:54;98534.97;;;13.88;96.74
30618;BME280;17384;51.214;9.202;2023-06-26T04:02:19;98537.94;;;13.87;96.82
30618;BME280;17384;51.214;9.202;2023-06-26T04:04:45;98534.97;;;13.88;96.39
30618;BME280;17384;51.214;9.202;2023-06-26T04:07:10;98529.03;;;13.92;96.07
30618;BME280;17384;51.214;9.202;2023-06-26T04:09:36;98538.34;;;13.96;96.02
30618;BME280;17384;51.214;9.202;2023-06-26T04:12:02;98545.56;;;14.02;95.89
30618;BME280;17384;51.214;9.202;2023-06-26T04:14:28;98539.13;;;14.08;96.17
30618;BME280;17384;51.214;9.202;2023-06-26T04:16:53;98539.81;;;14.15;95.81
30618;BME280;17384;51.214;9.202;2023-06-26T04:19:18;98550.59;;;14.21;95.49
30618;BME280;17384;51.214;9.202;2023-06-26T04:21:44;98551.25;;;14.29;95.66
30618;BME280;17384;51.214;9.202;2023-06-26T04:24:10;98541.34;;;14.39;95.62
30618;BME280;17384;51.214;9.202;2023-06-26T04:26:35;98540.78;;;14.54;95.56
30618;BME280;17384;51.214;9.202;2023-06-26T04:29:01;98540.72;;;14.66;95.21
30618;BME280;17384;51.214;9.202;2023-06-26T04:31:27;98546.41;;;14.81;94.56
30618;BME280;17384;51.214;9.202;2023-06-26T04:33:52;98537.66;;;14.96;94.77
30618;BME280;17384;51.214;9.202;2023-06-26T04:36:20;98529.91;;;15.09;94.50
30618;BME280;17384;51.214;9.202;2023-06-26T04:38:45;98535.03;;;15.22;94.10
30618;BME280;17384;51.214;9.202;2023-06-26T04:41:11;98538.78;;;15.38;93.26
30618;BME280;17384;51.214;9.202;2023-06-26T04:43:36;98527.81;;;15.55;92.61
30618;BME280;17384;51.214;9.202;2023-06-26T04:46:02;98542.84;;;15.74;92.16
30618;BME280;17384;51.214;9.202;2023-06-26T04:48:28;98541.94;;;15.90;91.52
30618;BME280;17384;51.214;9.202;2023-06-26T04:50:55;98541.59;;;16.09;90.81
30618;BME280;17384;51.214;9.202;2023-06-26T04:53:22;98539.06;;;16.29;90.35
30618;BME280;17384;51.214;9.202;2023-06-26T04:55:49;98540.91;;;16.50;89.65
30618;BME280;17384;51.214;9.202;2023-06-26T04:58:14;98540.56;;;16.74;88.86
30618;BME280;17384;51.214;9.202;2023-06-26T05:00:40;98534.72;;;16.97;87.50
30618;BME280;17384;51.214;9.202;2023-06-26T05:03:08;98540.38;;;17.17;86.51
30618;BME280;17384;51.214;9.202;2023-06-26T05:05:34;98535.56;;;17.40;86.22
30618;BME280;17384;51.214;9.202;2023-06-26T05:08:16;98534.53;;;17.56;85.56
30618;BME280;17384;51.214;9.202;2023-06-26T05:10:42;98532.19;;;17.80;85.40
30618;BME280;17384;51.214;9.202;2023-06-26T05:13:07;98527.59;;;18.01;84.58
30618;BME280;17384;51.214;9.202;2023-06-26T05:15:33;98533.97;;;18.26;84.06
30618;BME280;17384;51.214;9.202;2023-06-26T05:17:58;98528.50;;;18.52;83.10
30618;BME280;17384;51.214;9.202;2023-06-26T05:20:24;98536.50;;;18.64;83.00
30618;BME280;17384;51.214;9.202;2023-06-26T05:22:49;98538.72;;;18.87;82.58
30618;BME280;17384;51.214;9.202;2023-06-26T05:25:15;98529.03;;;19.15;82.34
30618;BME280;17384;51.214;9.202;2023-06-26T05:30:09;98520.97;;;19.69;80.60
30618;BME280;17384;51.214;9.202;2023-06-26T05:32:35;98519.22;;;19.83;79.14
30618;BME280;17384;51.214;9.202;2023-06-26T05:35:02;98517.50;;;19.98;78.97
30618;BME280;17384;51.214;9.202;2023-06-26T05:37:29;98524.53;;;20.24;77.87
30618;BME280;17384;51.214;9.202;2023-06-26T05:39:56;98520.88;;;20.34;77.39
30618;BME280;17384;51.214;9.202;2023-06-26T05:42:21;98520.16;;;20.18;75.97
30618;BME280;17384;51.214;9.202;2023-06-26T05:44:47;98512.25;;;20.01;77.14
30618;BME280;17384;51.214;9.202;2023-06-26T05:47:17;98507.41;;;19.78;78.23
30618;BME280;17384;51.214;9.202;2023-06-26T05:49:49;98515.34;;;19.94;79.73
30618;BME280;17384;51.214;9.202;2023-06-26T05:52:15;98509.13;;;20.18;77.84
30618;BME280;17384;51.214;9.202;2023-06-26T05:54:41;98519.63;;;20.55;77.31
30618;BME280;17384;51.214;9.202;2023-06-26T05:57:09;98518.06;;;20.49;74.19
30618;BME280;17384;51.214;9.202;2023-06-26T05:59:39;98512.81;;;20.81;74.48
30618;BME280;17384;51.214;9.202;2023-06-26T06:02:06;98506.66;;;21.18;72.19
30618;BME280;17384;51.214;9.202;2023-06-26T06:04:32;98514.34;;;21.50;70.87
30618;BME280;17384;51.214;9.202;2023-06-26T06:06:57;98516.44;;;21.82;70.17
30618;BME280;17384;51.214;9.202;2023-06-26T06:09:23;98514.56;;;22.02;68.63
30618;BME280;17384;51.214;9.202;2023-06-26T06:11:49;98509.88;;;21.97;68.53
30618;BME280;17384;51.214;9.202;2023-06-26T06:14:15;98519.19;;;22.44;65.59
30618;BME280;17384;51.214;9.202;2023-06-26T06:16:41;98520.63;;;22.60;64.70
30618;BME280;17384;51.214;9.202;2023-06-26T06:19:07;98508.25;;;22.90;63.09
30618;BME280;17384;51.214;9.202;2023-06-26T06:21:34;98503.53;;;22.90;62.46
30618;BME280;17384;51.214;9.202;2023-06-26T06:24:00;98519.47;;;22.80;62.89
30618;BME280;17384;51.214;9.202;2023-06-26T06:26:26;98507.75;;;22.69;63.76
30618;BME280;17384;51.214;9.202;2023-06-26T06:28:51;98507.97;;;22.54;65.39
30618;BME280;17384;51.214;9.202;2023-06-26T06:31:17;98504.53;;;22.43;65.23
30618;BME280;17384;51.214;9.202;2023-06-26T06:33:42;98503.66;;;22.48;65.88
30618;BME280;17384;51.214;9.202;2023-06-26T06:36:08;98497.75;;;22.54;64.85
30618;BME280;17384;51.214;9.202;2023-06-26T06:38:33;98485.06;;;22.35;65.20
30618;BME280;17384;51.214;9.202;2023-06-26T06:40:58;98484.91;;;22.26;64.22
30618;BME280;17384;51.214;9.202;2023-06-26T06:43:24;98484.69;;;22.22;64.45
30618;BME280;17384;51.214;9.202;2023-06-26T06:45:49;98492.59;;;22.48;64.65
30618;BME280;17384;51.214;9.202;2023-06-26T06:48:15;98501.19;;;22.46;65.05
30618;BME280;17384;51.214;9.202;2023-06-26T06:50:40;98492.56;;;22.85;63.09
30618;BME280;17384;51.214;9.202;2023-06-26T06:53:07;98517.75;;;22.84;62.78
30618;BME280;17384;51.214;9.202;2023-06-26T06:55:32;98510.78;;;23.19;62.05
30618;BME280;17384;51.214;9.202;2023-06-26T06:57:58;98499.03;;;23.68;60.42
30618;BME280;17384;51.214;9.202;2023-06-26T07:00:23;98513.06;;;23.85;60.09
30618;BME280;17384;51.214;9.202;2023-06-26T07:02:49;98498.16;;;24.09;58.87
30618;BME280;17384;51.214;9.202;2023-06-26T07:05:14;98496.66;;;24.39;58.11
30618;BME280;17384;51.214;9.202;2023-06-26T07:07:40;98484.91;;;24.19;58.83
30618;BME280;17384;51.214;9.202;2023-06-26T07:10:12;98497.38;;;24.44;57.49
30618;BME280;17384;51.214;9.202;2023-06-26T07:12:38;98494.75;;;24.61;57.45
30618;BME280;17384;51.214;9.202;2023-06-26T07:15:05;98480.72;;;24.67;57.11
30618;BME280;17384;51.214;9.202;2023-06-26T07:17:32;98489.13;;;24.75;56.89
30618;BME280;17384;51.214;9.202;2023-06-26T07:19:58;98493.22;;;24.78;56.83
30618;BME280;17384;51.214;9.202;2023-06-26T07:22:24;98495.06;;;24.82;57.12
30618;BME280;17384;51.214;9.202;2023-06-26T07:24:49;98484.47;;;25.07;57.09
30618;BME280;17384;51.214;9.202;2023-06-26T07:27:15;98485.91;;;25.04;57.27
30618;BME280;17384;51.214;9.202;2023-06-26T07:29:42;98483.66;;;25.46;55.38
30618;BME280;17384;51.214;9.202;2023-06-26T07:32:07;98483.03;;;25.18;56.15
30618;BME280;17384;51.214;9.202;2023-06-26T07:34:33;98485.59;;;25.37;56.52
30618;BME280;17384;51.214;9.202;2023-06-26T07:36:59;98484.47;;;25.46;55.29
30618;BME280;17384;51.214;9.202;2023-06-26T07:39:24;98487.00;;;25.25;55.95
30618;BME280;17384;51.214;9.202;2023-06-26T07:41:50;98495.63;;;25.55;54.69
30618;BME280;17384;51.214;9.202;2023-06-26T07:44:15;98495.66;;;25.24;54.82
30618;BME280;17384;51.214;9.202;2023-06-26T07:46:41;98494.31;;;25.92;53.86
30618;BME280;17384;51.214;9.202;2023-06-26T07:49:06;98501.28;;;26.46;53.46
30618;BME280;17384;51.214;9.202;2023-06-26T07:51:32;98506.34;;;26.79;52.34
30618;BME280;17384;51.214;9.202;2023-06-26T07:53:57;98510.22;;;27.12;50.99
30618;BME280;17384;51.214;9.202;2023-06-26T07:56:22;98502.06;;;27.62;49.41
30618;BME280;17384;51.214;9.202;2023-06-26T07:58:48;98496.63;;;27.95;47.45
30618;BME280;17384;51.214;9.202;2023-06-26T08:01:13;98501.53;;;27.69;44.16
30618;BME280;17384;51.214;9.202;2023-06-26T08:03:39;98494.22;;;28.15;42.86
30618;BME280;17384;51.214;9.202;2023-06-26T08:06:05;98490.56;;;28.23;43.75
30618;BME280;17384;51.214;9.202;2023-06-26T08:08:31;98485.38;;;28.13;41.65
30618;BME280;17384;51.214;9.202;2023-06-26T08:10:56;98490.00;;;28.38;41.27
30618;BME280;17384;51.214;9.202;2023-06-26T08:13:22;98479.34;;;28.52;44.02
30618;BME280;17384;51.214;9.202;2023-06-26T08:15:47;98479.78;;;28.75;42.27
30618;BME280;17384;51.214;9.202;2023-06-26T08:18:13;98481.00;;;29.52;43.74
30618;BME280;17384;51.214;9.202;2023-06-26T08:20:38;98480.28;;;29.43;40.74
30618;BME280;17384;51.214;9.202;2023-06-26T08:23:04;98482.38;;;29.46;41.43
30618;BME280;17384;51.214;9.202;2023-06-26T08:25:30;98485.41;;;29.08;40.65
30618;BME280;17384;51.214;9.202;2023-06-26T08:27:55;98480.97;;;28.53;41.14
30618;BME280;17384;51.214;9.202;2023-06-26T08:30:21;98495.56;;;28.38;41.64
30618;BME280;17384;51.214;9.202;2023-06-26T08:32:47;98481.19;;;28.27;43.51
30618;BME280;17384;51.214;9.202;2023-06-26T08:35:12;98481.41;;;28.43;42.90
30618;BME280;17384;51.214;9.202;2023-06-26T08:37:38;98480.16;;;28.94;42.31
30618;BME280;17384;51.214;9.202;2023-06-26T08:40:04;98480.28;;;28.98;42.92
30618;BME280;17384;51.214;9.202;2023-06-26T08:42:30;98474.81;;;29.83;39.62
30618;BME280;17384;51.214;9.202;2023-06-26T08:44:55;98472.69;;;29.56;39.51
30618;BME280;17384;51.214;9.202;2023-06-26T08:47:21;98464.22;;;29.07;40.31
30618;BME280;17384;51.214;9.202;2023-06-26T08:52:23;98466.91;;;28.29;41.55
30618;BME280;17384;51.214;9.202;2023-06-26T08:54:54;98477.06;;;28.04;42.42
30618;BME280;17384;51.214;9.202;2023-06-26T08:57:22;98474.25;;;27.83;43.76
30618;BME280;17384;51.214;9.202;2023-06-26T08:59:48;98472.63;;;27.82;40.75
30618;BME280;17384;51.214;9.202;2023-06-26T09:02:14;98470.56;;;28.21;44.28
30618;BME280;17384;51.214;9.202;2023-06-26T09:04:40;98473.72;;;28.40;42.70
30618;BME280;17384;51.214;9.202;2023-06-26T09:07:07;98464.78;;;28.26;44.33
30618;BME280;17384;51.214;9.202;2023-06-26T09:09:33;98478.69;;;28.35;44.39
30618;BME280;17384;51.214;9.202;2023-06-26T09:11:58;98474.09;;;28.72;41.82
30618;BME280;17384;51.214;9.202;2023-06-26T09:14:24;98482.00;;;28.70;42.13
30618;BME280;17384;51.214;9.202;2023-06-26T09:16:50;98478.28;;;28.45;40.89
30618;BME280;17384;51.214;9.202;2023-06-26T09:19:15;98489.84;;;28.55;40.47
30618;BME280;17384;51.214;9.202;2023-06-26T09:21:42;98490.06;;;29.04;41.76
30618;BME280;17384;51.214;9.202;2023-06-26T09:24:09;98481.66;;;28.71;41.00
30618;BME280;17384;51.214;9.202;2023-06-26T09:26:38;98484.44;;;28.92;42.11
30618;BME280;17384;51.214;9.202;2023-06-26T09:29:05;98492.13;;;28.74;41.34
30618;BME280;17384;51.214;9.202;2023-06-26T09:31:30;98492.28;;;28.36;42.89
30618;BME280;17384;51.214;9.202;2023-06-26T09:33:59;98493.28;;;28.11;41.99
30618;BME280;17384;51.214;9.202;2023-06-26T09:36:29;98491.34;;;28.32;43.42
30618;BME280;17384;51.214;9.202;2023-06-26T09:39:02;98508.09;;;28.32;43.56
30618;BME280;17384;51.214;9.202;2023-06-26T09:41:28;98500.72;;;28.27;44.99
30618;BME280;17384;51.214;9.202;2023-06-26T09:43:53;98499.75;;;28.23;43.76
30618;BME280;17384;51.214;9.202;2023-06-26T09:46:30;98502.06;;;28.21;44.32
30618;BME280;17384;51.214;9.202;2023-06-26T09:51:30;98508.06;;;27.73;46.35
30618;BME280;17384;51.214;9.202;2023-06-26T09:53:56;98513.66;;;27.73;45.23
30618;BME280;17384;51.214;9.202;2023-06-26T09:56:22;98516.88;;;27.84;46.00
30618;BME280;17384;51.214;9.202;2023-06-26T09:58:49;98505.84;;;27.49;47.26
30618;BME280;17384;51.214;9.202;2023-06-26T10:01:15;98509.13;;;27.60;46.51
30618;BME280;17384;51.214;9.202;2023-06-26T10:03:40;98515.38;;;27.40;47.48
30618;BME280;17384;51.214;9.202;2023-06-26T10:06:09;98511.19;;;27.34;46.91
30618;BME280;17384;51.214;9.202;2023-06-26T10:08:37;98512.19;;;27.20;47.80
30618;BME280;17384;51.214;9.202;2023-06-26T10:11:04;98525.63;;;27.10;48.64
30618;BME280;17384;51.214;9.202;2023-06-26T10:13:38;98543.66;;;26.69;49.98
30618;BME280;17384;51.214;9.202;2023-06-26T10:16:07;98559.56;;;25.94;52.75
30618;BME280;17384;51.214;9.202;2023-06-26T10:18:36;98562.88;;;25.12;56.99
30618;BME280;17384;51.214;9.202;2023-06-26T10:21:05;98574.84;;;24.13;64.22
30618;BME280;17384;51.214;9.202;2023-06-26T10:23:33;98582.53;;;23.15;71.19
30618;BME280;17384;51.214;9.202;2023-06-26T10:26:00;98560.59;;;22.11;74.95
30618;BME280;17384;51.214;9.202;2023-06-26T10:28:28;98538.72;;;21.67;77.18
30618;BME280;17384;51.214;9.202;2023-06-26T10:30:54;98530.03;;;21.55;78.68
30618;BME280;17384;51.214;9.202;2023-06-26T10:33:21;98537.75;;;21.58;79.31
30618;BME280;17384;51.214;9.202;2023-06-26T10:35:47;98538.19;;;22.13;78.81
30618;BME280;17384;51.214;9.202;2023-06-26T10:38:12;98554.22;;;22.48;77.87
30618;BME280;17384;51.214;9.202;2023-06-26T10:40:48;98570.72;;;23.10;76.37
30618;BME280;17384;51.214;9.202;2023-06-26T10:43:15;98561.88;;;23.40;71.09
30618;BME280;17384;51.214;9.202;2023-06-26T10:45:48;98565.47;;;24.50;73.26
30618;BME280;17384;51.214;9.202;2023-06-26T10:48:21;98570.84;;;25.05;67.50
30618;BME280;17384;51.214;9.202;2023-06-26T10:50:48;98574.41;;;25.28;63.04
30618;BME280;17384;51.214;9.202;2023-06-26T10:53:15;98570.28;;;25.79;64.22
30618;BME280;17384;51.214;9.202;2023-06-26T10:55:51;98575.44;;;26.51;60.10
30618;BME280;17384;51.214;9.202;2023-06-26T10:58:31;98573.03;;;26.27;61.03
30618;BME280;17384;51.214;9.202;2023-06-26T11:03:45;98571.41;;;27.55;55.76
30618;BME280;17384;51.214;9.202;2023-06-26T11:06:13;98567.66;;;27.60;54.66
30618;BME280;17384;51.214;9.202;2023-06-26T11:08:51;98571.16;;;27.86;54.67
30618;BME280;17384;51.214;9.202;2023-06-26T11:11:22;98562.34;;;28.14;52.33
30618;BME280;17384;51.214;9.202;2023-06-26T11:14:08;98568.47;;;28.37;51.88
30618;BME280;17384;51.214;9.202;2023-06-26T11:16:34;98565.38;;;27.91;53.98
30618;BME280;17384;51.214;9.202;2023-06-26T11:19:00;98571.22;;;27.69;52.14
30618;BME280;17384;51.214;9.202;2023-06-26T11:21:26;98579.44;;;27.57;54.93
30618;BME280;17384;51.214;9.202;2023-06-26T11:23:53;98584.06;;;27.61;55.13
30618;BME280;17384;51.214;9.202;2023-06-26T11:26:23;98581.66;;;26.91;54.83
30618;BME280;17384;51.214;9.202;2023-06-26T11:28:53;98581.06;;;26.28;55.11
30618;BME280;17384;51.214;9.202;2023-06-26T11:31:30;98592.38;;;26.23;57.73
30618;BME280;17384;51.214;9.202;2023-06-26T11:33:56;98595.41;;;26.05;58.77
30618;BME280;17384;51.214;9.202;2023-06-26T11:36:23;98597.38;;;25.65;58.98
30618;BME280;17384;51.214;9.202;2023-06-26T11:38:57;98596.41;;;25.47;60.11
30618;BME280;17384;51.214;9.202;2023-06-26T11:41:25;98606.91;;;25.27;60.52
30618;BME280;17384;51.214;9.202;2023-06-26T11:43:52;98613.50;;;25.09;60.94
30618;BME280;17384;51.214;9.202;2023-06-26T11:46:19;98604.38;;;24.95;60.48
30618;BME280;17384;51.214;9.202;2023-06-26T11:48:45;98609.31;;;24.98;59.43
30618;BME280;17384;51.214;9.202;2023-06-26T11:51:15;98605.97;;;24.74;58.68
30618;BME280;17384;51.214;9.202;2023-06-26T11:53:45;98612.03;;;24.76;59.57
30618;BME280;17384;51.214;9.202;2023-06-26T11:56:15;98614.06;;;24.84;60.77
30618;BME280;17384;51.214;9.202;2023-06-26T12:01:21;98619.25;;;25.13;56.91
30618;BME280;17384;51.214;9.202;2023-06-26T12:03:48;98618.59;;;25.38;57.59
30618;BME280;17384;51.214;9.202;2023-06-26T12:06:15;98618.38;;;25.57;56.51
30618;BME280;17384;51.214;9.202;2023-06-26T12:08:40;98608.66;;;25.46;54.88
30618;BME280;17384;51.214;9.202;2023-06-26T12:11:06;98611.09;;;25.16;56.00
30618;BME280;17384;51.214;9.202;2023-06-26T12:13:32;98621.59;;;24.83;58.08
30618;BME280;17384;51.214;9.202;2023-06-26T12:15:58;98624.03;;;24.49;58.05
30618;BME280;17384;51.214;9.202;2023-06-26T12:18:23;98632.66;;;24.47;57.86
30618;BME280;17384;51.214;9.202;2023-06-26T12:20:51;98624.84;;;24.22;58.24
30618;BME280;17384;51.214;9.202;2023-06-26T12:23:16;98644.16;;;24.00;57.11
30618;BME280;17384;51.214;9.202;2023-06-26T12:25:43;98635.56;;;24.28;57.60
30618;BME280;17384;51.214;9.202;2023-06-26T12:28:16;98635.78;;;25.40;56.33
30618;BME280;17384;51.214;9.202;2023-06-26T12:30:46;98638.50;;;25.85;55.66
30618;BME280;17384;51.214;9.202;2023-06-26T12:33:15;98639.13;;;25.82;52.51
30618;BME280;17384;51.214;9.202;2023-06-26T12:35:41;98640.09;;;25.55;52.07
30618;BME280;17384;51.214;9.202;2023-06-26T12:38:08;98628.97;;;26.17;51.02
30618;BME280;17384;51.214;9.202;2023-06-26T12:40:45;98630.25;;;26.59;50.60
30618;BME280;17384;51.214;9.202;2023-06-26T12:43:11;98630.91;;;26.56;47.54
30618;BME280;17384;51.214;9.202;2023-06-26T12:45:37;98635.19;;;26.62;49.29
30618;BME280;17384;51.214;9.202;2023-06-26T12:48:16;98639.91;;;26.44;48.45
30618;BME280;17384;51.214;9.202;2023-06-26T12:50:45;98632.59;;;26.74;48.45
30618;BME280;17384;51.214;9.202;2023-06-26T12:53:11;98629.03;;;27.00;48.23
30618;BME280;17384;51.214;9.202;2023-06-26T12:55:36;98632.09;;;27.50;47.44
30618;BME280;17384;51.214;9.202;2023-06-26T12:58:02;98643.44;;;28.00;44.77
30618;BME280;17384;51.214;9.202;2023-06-26T13:00:27;98635.53;;;28.11;45.21
30618;BME280;17384;51.214;9.202;2023-06-26T13:02:53;98629.47;;;27.53;47.96
30618;BME280;17384;51.214;9.202;2023-06-26T13:05:18;98630.66;;;27.09;48.33
30618;BME280;17384;51.214;9.202;2023-06-26T13:07:44;98645.13;;;26.06;49.51
30618;BME280;17384;51.214;9.202;2023-06-26T13:10:10;98636.16;;;25.78;51.08
30618;BME280;17384;51.214;9.202;2023-06-26T13:12:35;98633.75;;;25.85;52.08
30618;BME280;17384;51.214;9.202;2023-06-26T13:15:01;98632.09;;;26.15;49.02
30618;BME280;17384;51.214;9.202;2023-06-26T13:17:26;98633.72;;;26.90;48.60